sensor_id;sensor_type;location;lat;lon;timestamp;P1;durP1;ratioP1;P2;durP2;ratioP2
23432;SDS011;41331;45.412;10.992;2024-03-23T00:54:27;664.33;;;617.78;;
23432;SDS011;41331;45.412;10.992;2024-03-23T00:56:54;643.47;;;598.90;;
23432;SDS011;41331;45.412;10.992;2024-03-23T00:59:20;536.42;;;500.38;;
23432;SDS011;41331;45.412;10.992;2024-03-23T01:01:48;635.60;;;592.00;;
23432;SDS011;41331;45.412;10.992;2024-03-23T01:04:15;690.30;;;622.63;;
23432;SDS011;41331;45.412;10.992;2024-03-23T01:06:42;690.03;;;627.17;;
23432;SDS011;41331;45.412;10.992;2024-03-23T01:09:08;694.92;;;630.65;;
23432;SDS011;41331;45.412;10.992;2024-03-23T01:11:37;703.58;;;650.35;;
23432;SDS011;41331;45.412;10.992;2024-03-23T01:14:05;690.17;;;625.33;;
23432;SDS011;41331;45.412;10.992;2024-03-23T01:16:32;682.17;;;629.83;;
23432;SDS011;41331;45.412;10.992;2024-03-23T01:18:59;604.15;;;562.83;;
23432;SDS011;41331;45.412;10.992;2024-03-23T01:21:26;668.03;;;609.30;;
23432;SDS011;41331;45.412;10.992;2024-03-23T01:23:52;655.35;;;609.13;;
23432;SDS011;41331;45.412;10.992;2024-03-23T01:26:19;675.95;;;623.30;;
23432;SDS011;41331;45.412;10.992;2024-03-23T01:28:46;672.15;;;614.10;;
23432;SDS011;41331;45.412;10.992;2024-03-23T01:31:12;671.38;;;612.13;;
23432;SDS011;41331;45.412;10.992;2024-03-23T01:33:39;665.25;;;612.95;;
23432;SDS011;41331;45.412;10.992;2024-03-23T01:36:06;677.58;;;579.55;;
23432;SDS011;41331;45.412;10.992;2024-03-23T01:38:32;667.55;;;607.92;;
23432;SDS011;41331;45.412;10.992;2024-03-23T01:40:59;667.63;;;614.90;;
23432;SDS011;41331;45.412;10.992;2024-03-23T01:43:26;673.72;;;600.45;;
23432;SDS011;41331;45.412;10.992;2024-03-23T01:45:53;678.25;;;624.08;;
23432;SDS011;41331;45.412;10.992;2024-03-23T01:48:20;674.35;;;609.33;;
23432;SDS011;41331;45.412;10.992;2024-03-23T01:50:47;665.80;;;610.45;;
23432;SDS011;41331;45.412;10.992;2024-03-23T01:53:14;673.22;;;615.47;;
23432;SDS011;41331;45.412;10.992;2024-03-23T01:55:43;661.80;;;609.55;;
23432;SDS011;41331;45.412;10.992;2024-03-23T01:58:10;639.55;;;594.72;;
23432;SDS011;41331;45.412;10.992;2024-03-23T02:00:37;655.78;;;605.58;;
23432;SDS011;41331;45.412;10.992;2024-03-23T02:03:21;653.95;;;603.00;;
23432;SDS011;41331;45.412;10.992;2024-03-23T02:05:52;648.17;;;601.03;;
23432;SDS011;41331;45.412;10.992;2024-03-23T02:08:20;624.75;;;580.22;;
23432;SDS011;41331;45.412;10.992;2024-03-23T02:10:48;570.80;;;531.47;;
23432;SDS011;41331;45.412;10.992;2024-03-23T02:13:16;621.05;;;576.20;;
23432;SDS011;41331;45.412;10.992;2024-03-23T02:15:44;631.83;;;586.50;;
23432;SDS011;41331;45.412;10.992;2024-03-23T02:18:11;611.88;;;567.58;;
23432;SDS011;41331;45.412;10.992;2024-03-23T02:20:38;622.97;;;578.22;;
23432;SDS011;41331;45.412;10.992;2024-03-23T02:23:05;567.42;;;528.25;;
23432;SDS011;41331;45.412;10.992;2024-03-23T02:25:35;629.65;;;584.55;;
23432;SDS011;41331;45.412;10.992;2024-03-23T02:28:02;573.60;;;532.92;;
23432;SDS011;41331;45.412;10.992;2024-03-23T02:30:29;574.45;;;534.33;;
23432;SDS011;41331;45.412;10.992;2024-03-23T02:32:55;631.03;;;584.22;;
23432;SDS011;41331;45.412;10.992;2024-03-23T02:35:22;653.47;;;598.42;;
23432;SDS011;41331;45.412;10.992;2024-03-23T02:37:49;653.08;;;585.42;;
23432;SDS011;41331;45.412;10.992;2024-03-23T02:40:16;653.13;;;599.53;;
23432;SDS011;41331;45.412;10.992;2024-03-23T02:42:43;647.72;;;576.97;;
23432;SDS011;41331;45.412;10.992;2024-03-23T02:45:13;644.85;;;579.92;;
23432;SDS011;41331;45.412;10.992;2024-03-23T02:47:40;638.58;;;551.67;;
23432;SDS011;41331;45.412;10.992;2024-03-23T02:50:07;627.28;;;576.85;;
23432;SDS011;41331;45.412;10.992;2024-03-23T02:52:35;635.83;;;573.28;;
23432;SDS011;41331;45.412;10.992;2024-03-23T02:55:03;628.38;;;582.53;;
23432;SDS011;41331;45.412;10.992;2024-03-23T02:57:30;591.58;;;548.80;;
23432;SDS011;41331;45.412;10.992;2024-03-23T02:59:57;600.03;;;553.65;;
23432;SDS011;41331;45.412;10.992;2024-03-23T03:02:24;611.63;;;564.92;;
23432;SDS011;41331;45.412;10.992;2024-03-23T03:04:50;615.53;;;569.97;;
23432;SDS011;41331;45.412;10.992;2024-03-23T03:07:17;578.60;;;535.92;;
23432;SDS011;41331;45.412;10.992;2024-03-23T03:09:44;597.00;;;551.72;;
23432;SDS011;41331;45.412;10.992;2024-03-23T03:12:11;623.88;;;570.88;;
23432;SDS011;41331;45.412;10.992;2024-03-23T03:14:38;628.92;;;569.92;;
23432;SDS011;41331;45.412;10.992;2024-03-23T03:17:05;631.55;;;571.63;;
23432;SDS011;41331;45.412;10.992;2024-03-23T03:19:31;625.72;;;571.40;;
23432;SDS011;41331;45.412;10.992;2024-03-23T03:21:58;634.95;;;584.70;;
23432;SDS011;41331;45.412;10.992;2024-03-23T03:24:25;567.47;;;527.42;;
23432;SDS011;41331;45.412;10.992;2024-03-23T03:26:52;635.58;;;585.00;;
23432;SDS011;41331;45.412;10.992;2024-03-23T03:29:18;641.45;;;577.22;;
23432;SDS011;41331;45.412;10.992;2024-03-23T03:31:45;634.45;;;577.80;;
23432;SDS011;41331;45.412;10.992;2024-03-23T03:34:12;629.05;;;563.10;;
23432;SDS011;41331;45.412;10.992;2024-03-23T03:36:39;549.25;;;508.95;;
23432;SDS011;41331;45.412;10.992;2024-03-23T03:39:06;667.05;;;524.28;;
23432;SDS011;41331;45.412;10.992;2024-03-23T03:41:33;641.97;;;550.00;;
23432;SDS011;41331;45.412;10.992;2024-03-23T03:43:59;614.38;;;561.90;;
23432;SDS011;41331;45.412;10.992;2024-03-23T03:46:29;635.72;;;574.63;;
23432;SDS011;41331;45.412;10.992;2024-03-23T03:48:56;602.30;;;554.50;;
23432;SDS011;41331;45.412;10.992;2024-03-23T03:51:22;626.28;;;577.20;;
23432;SDS011;41331;45.412;10.992;2024-03-23T03:53:49;612.08;;;549.83;;
23432;SDS011;41331;45.412;10.992;2024-03-23T03:56:15;570.63;;;528.00;;
23432;SDS011;41331;45.412;10.992;2024-03-23T03:58:42;612.83;;;556.78;;
23432;SDS011;41331;45.412;10.992;2024-03-23T04:01:09;683.88;;;515.25;;
23432;SDS011;41331;45.412;10.992;2024-03-23T04:03:36;597.88;;;552.63;;
23432;SDS011;41331;45.412;10.992;2024-03-23T04:06:02;616.22;;;559.70;;
23432;SDS011;41331;45.412;10.992;2024-03-23T04:08:29;604.38;;;545.17;;
23432;SDS011;41331;45.412;10.992;2024-03-23T04:10:56;607.58;;;553.05;;
23432;SDS011;41331;45.412;10.992;2024-03-23T04:13:22;602.75;;;552.58;;
23432;SDS011;41331;45.412;10.992;2024-03-23T04:15:53;615.67;;;563.97;;
23432;SDS011;41331;45.412;10.992;2024-03-23T04:18:21;595.25;;;535.33;;
23432;SDS011;41331;45.412;10.992;2024-03-23T04:20:48;597.40;;;547.00;;
23432;SDS011;41331;45.412;10.992;2024-03-23T04:23:15;578.70;;;534.78;;
23432;SDS011;41331;45.412;10.992;2024-03-23T04:25:41;613.17;;;547.78;;
23432;SDS011;41331;45.412;10.992;2024-03-23T04:28:08;553.22;;;512.13;;
23432;SDS011;41331;45.412;10.992;2024-03-23T04:30:35;580.08;;;535.97;;
23432;SDS011;41331;45.412;10.992;2024-03-23T04:33:01;574.63;;;527.53;;
23432;SDS011;41331;45.412;10.992;2024-03-23T04:35:28;610.22;;;549.83;;
23432;SDS011;41331;45.412;10.992;2024-03-23T04:37:54;591.22;;;542.65;;
23432;SDS011;41331;45.412;10.992;2024-03-23T04:40:25;597.50;;;539.15;;
23432;SDS011;41331;45.412;10.992;2024-03-23T04:42:52;597.22;;;537.42;;
23432;SDS011;41331;45.412;10.992;2024-03-23T04:45:19;602.38;;;541.72;;
23432;SDS011;41331;45.412;10.992;2024-03-23T04:47:45;606.05;;;543.28;;
23432;SDS011;41331;45.412;10.992;2024-03-23T04:50:13;603.67;;;525.53;;
23432;SDS011;41331;45.412;10.992;2024-03-23T04:52:40;573.55;;;531.08;;
23432;SDS011;41331;45.412;10.992;2024-03-23T04:55:09;583.78;;;534.25;;
23432;SDS011;41331;45.412;10.992;2024-03-23T04:57:36;586.38;;;539.10;;
23432;SDS011;41331;45.412;10.992;2024-03-23T05:00:03;590.15;;;540.83;;
23432;SDS011;41331;45.412;10.992;2024-03-23T05:02:38;588.40;;;534.28;;
23432;SDS011;41331;45.412;10.992;2024-03-23T05:05:05;547.28;;;507.23;;
23432;SDS011;41331;45.412;10.992;2024-03-23T05:07:33;587.80;;;532.10;;
23432;SDS011;41331;45.412;10.992;2024-03-23T05:10:00;595.65;;;546.08;;
23432;SDS011;41331;45.412;10.992;2024-03-23T05:12:27;555.92;;;515.75;;
23432;SDS011;41331;45.412;10.992;2024-03-23T05:14:53;589.55;;;539.78;;
23432;SDS011;41331;45.412;10.992;2024-03-23T05:17:20;569.45;;;523.20;;
23432;SDS011;41331;45.412;10.992;2024-03-23T05:19:47;524.42;;;486.00;;
23432;SDS011;41331;45.412;10.992;2024-03-23T05:22:14;572.78;;;528.50;;
23432;SDS011;41331;45.412;10.992;2024-03-23T05:24:40;497.15;;;462.50;;
23432;SDS011;41331;45.412;10.992;2024-03-23T05:27:07;587.67;;;538.92;;
23432;SDS011;41331;45.412;10.992;2024-03-23T05:29:34;595.17;;;544.85;;
23432;SDS011;41331;45.412;10.992;2024-03-23T05:32:00;562.00;;;517.22;;
23432;SDS011;41331;45.412;10.992;2024-03-23T05:34:27;524.22;;;486.77;;
23432;SDS011;41331;45.412;10.992;2024-03-23T05:36:55;547.28;;;506.48;;
23432;SDS011;41331;45.412;10.992;2024-03-23T05:39:22;572.45;;;529.00;;
23432;SDS011;41331;45.412;10.992;2024-03-23T05:41:48;601.83;;;541.47;;
23432;SDS011;41331;45.412;10.992;2024-03-23T05:44:15;622.85;;;563.30;;
23432;SDS011;41331;45.412;10.992;2024-03-23T05:46:42;512.30;;;476.83;;
23432;SDS011;41331;45.412;10.992;2024-03-23T05:49:08;623.90;;;580.00;;
23432;SDS011;41331;45.412;10.992;2024-03-23T05:51:35;670.92;;;623.92;;
23432;SDS011;41331;45.412;10.992;2024-03-23T05:54:02;643.67;;;601.00;;
23432;SDS011;41331;45.412;10.992;2024-03-23T05:56:29;512.40;;;478.25;;
23432;SDS011;41331;45.412;10.992;2024-03-23T05:58:55;701.33;;;654.50;;
23432;SDS011;41331;45.412;10.992;2024-03-23T06:01:22;562.97;;;524.85;;
23432;SDS011;41331;45.412;10.992;2024-03-23T06:03:49;723.45;;;674.67;;
23432;SDS011;41331;45.412;10.992;2024-03-23T06:06:16;737.65;;;688.33;;
23432;SDS011;41331;45.412;10.992;2024-03-23T06:08:42;860.28;;;800.55;;
23432;SDS011;41331;45.412;10.992;2024-03-23T06:11:09;875.70;;;811.33;;
23432;SDS011;41331;45.412;10.992;2024-03-23T06:13:36;505.77;;;471.80;;
23432;SDS011;41331;45.412;10.992;2024-03-23T06:16:02;705.53;;;657.22;;
23432;SDS011;41331;45.412;10.992;2024-03-23T06:18:29;619.45;;;578.40;;
23432;SDS011;41331;45.412;10.992;2024-03-23T06:20:56;616.53;;;575.75;;
23432;SDS011;41331;45.412;10.992;2024-03-23T06:23:23;770.67;;;714.97;;
23432;SDS011;41331;45.412;10.992;2024-03-23T06:25:50;538.80;;;503.27;;
23432;SDS011;41331;45.412;10.992;2024-03-23T06:28:16;810.85;;;748.15;;
23432;SDS011;41331;45.412;10.992;2024-03-23T06:30:44;726.58;;;676.13;;
23432;SDS011;41331;45.412;10.992;2024-03-23T06:33:11;454.23;;;423.15;;
23432;SDS011;41331;45.412;10.992;2024-03-23T06:35:37;398.77;;;370.42;;
23432;SDS011;41331;45.412;10.992;2024-03-23T06:38:04;364.25;;;336.95;;
23432;SDS011;41331;45.412;10.992;2024-03-23T06:40:31;131.43;;;121.28;;
23432;SDS011;41331;45.412;10.992;2024-03-23T06:42:58;62.75;;;57.45;;
23432;SDS011;41331;45.412;10.992;2024-03-23T06:45:24;23.52;;;13.82;;
23432;SDS011;41331;45.412;10.992;2024-03-23T06:47:51;22.00;;;13.40;;
23432;SDS011;41331;45.412;10.992;2024-03-23T06:50:18;22.52;;;12.27;;
23432;SDS011;41331;45.412;10.992;2024-03-23T06:52:45;22.35;;;12.07;;
23432;SDS011;41331;45.412;10.992;2024-03-23T06:55:11;24.90;;;12.43;;
23432;SDS011;41331;45.412;10.992;2024-03-23T06:57:38;21.48;;;11.95;;
23432;SDS011;41331;45.412;10.992;2024-03-23T07:00:05;24.58;;;11.88;;
23432;SDS011;41331;45.412;10.992;2024-03-23T07:02:36;79.72;;;73.18;;
23432;SDS011;41331;45.412;10.992;2024-03-23T07:05:03;409.83;;;372.70;;
23432;SDS011;41331;45.412;10.992;2024-03-23T07:07:30;28.33;;;13.25;;
23432;SDS011;41331;45.412;10.992;2024-03-23T07:09:56;22.95;;;13.57;;
23432;SDS011;41331;45.412;10.992;2024-03-23T07:12:23;70.28;;;64.38;;
23432;SDS011;41331;45.412;10.992;2024-03-23T07:14:50;164.80;;;150.40;;
23432;SDS011;41331;45.412;10.992;2024-03-23T07:17:17;22.55;;;13.65;;
23432;SDS011;41331;45.412;10.992;2024-03-23T07:19:44;25.70;;;18.35;;
23432;SDS011;41331;45.412;10.992;2024-03-23T07:22:11;24.85;;;18.83;;
23432;SDS011;41331;45.412;10.992;2024-03-23T07:24:38;237.55;;;214.65;;
23432;SDS011;41331;45.412;10.992;2024-03-23T07:27:06;547.47;;;497.00;;
23432;SDS011;41331;45.412;10.992;2024-03-23T07:29:36;26.60;;;17.33;;
23432;SDS011;41331;45.412;10.992;2024-03-23T07:32:03;26.00;;;17.90;;
23432;SDS011;41331;45.412;10.992;2024-03-23T07:34:29;27.45;;;24.45;;
23432;SDS011;41331;45.412;10.992;2024-03-23T07:36:56;24.40;;;16.52;;
23432;SDS011;41331;45.412;10.992;2024-03-23T07:39:23;26.80;;;17.73;;
23432;SDS011;41331;45.412;10.992;2024-03-23T07:41:49;27.27;;;16.77;;
23432;SDS011;41331;45.412;10.992;2024-03-23T07:44:16;24.73;;;14.82;;
23432;SDS011;41331;45.412;10.992;2024-03-23T07:46:43;27.52;;;16.42;;
23432;SDS011;41331;45.412;10.992;2024-03-23T07:49:09;27.85;;;18.35;;
23432;SDS011;41331;45.412;10.992;2024-03-23T07:51:36;32.28;;;18.08;;
23432;SDS011;41331;45.412;10.992;2024-03-23T07:54:05;24.80;;;16.15;;
23432;SDS011;41331;45.412;10.992;2024-03-23T07:56:31;27.70;;;16.63;;
23432;SDS011;41331;45.412;10.992;2024-03-23T07:58:58;25.10;;;15.40;;
23432;SDS011;41331;45.412;10.992;2024-03-23T08:01:25;28.60;;;16.38;;
23432;SDS011;41331;45.412;10.992;2024-03-23T08:03:51;51.38;;;46.53;;
23432;SDS011;41331;45.412;10.992;2024-03-23T08:06:19;67.13;;;61.03;;
23432;SDS011;41331;45.412;10.992;2024-03-23T08:08:51;54.92;;;50.08;;
23432;SDS011;41331;45.412;10.992;2024-03-23T08:11:43;117.28;;;107.22;;
23432;SDS011;41331;45.412;10.992;2024-03-23T08:14:12;148.18;;;135.10;;
23432;SDS011;41331;45.412;10.992;2024-03-23T08:16:39;565.67;;;512.50;;
23432;SDS011;41331;45.412;10.992;2024-03-23T08:19:06;423.45;;;381.42;;
23432;SDS011;41331;45.412;10.992;2024-03-23T08:21:34;434.90;;;391.92;;
23432;SDS011;41331;45.412;10.992;2024-03-23T08:24:01;820.88;;;745.92;;
23432;SDS011;41331;45.412;10.992;2024-03-23T08:26:28;139.07;;;126.53;;
23432;SDS011;41331;45.412;10.992;2024-03-23T08:28:54;71.35;;;64.70;;
23432;SDS011;41331;45.412;10.992;2024-03-23T08:31:21;66.82;;;60.50;;
23432;SDS011;41331;45.412;10.992;2024-03-23T08:33:48;74.60;;;67.95;;
23432;SDS011;41331;45.412;10.992;2024-03-23T08:36:14;63.25;;;57.47;;
23432;SDS011;41331;45.412;10.992;2024-03-23T08:38:41;69.85;;;62.80;;
23432;SDS011;41331;45.412;10.992;2024-03-23T08:41:09;61.03;;;55.33;;
23432;SDS011;41331;45.412;10.992;2024-03-23T08:43:37;157.05;;;143.15;;
23432;SDS011;41331;45.412;10.992;2024-03-23T08:46:09;128.32;;;116.45;;
23432;SDS011;41331;45.412;10.992;2024-03-23T08:48:37;138.43;;;126.07;;
23432;SDS011;41331;45.412;10.992;2024-03-23T08:51:06;196.73;;;178.23;;
23432;SDS011;41331;45.412;10.992;2024-03-23T08:53:37;317.60;;;285.63;;
23432;SDS011;41331;45.412;10.992;2024-03-23T08:56:05;1026.57;;;934.83;;
23432;SDS011;41331;45.412;10.992;2024-03-23T08:58:33;81.43;;;74.35;;
23432;SDS011;41331;45.412;10.992;2024-03-23T09:01:04;230.23;;;208.00;;
23432;SDS011;41331;45.412;10.992;2024-03-23T09:03:33;253.10;;;228.32;;
23432;SDS011;41331;45.412;10.992;2024-03-23T09:06:02;382.58;;;343.45;;
23432;SDS011;41331;45.412;10.992;2024-03-23T09:11:03;304.25;;;272.70;;
23432;SDS011;41331;45.412;10.992;2024-03-23T09:13:32;825.15;;;748.45;;
23432;SDS011;41331;45.412;10.992;2024-03-23T09:16:00;170.00;;;154.45;;
23432;SDS011;41331;45.412;10.992;2024-03-23T09:18:27;209.32;;;189.32;;
23432;SDS011;41331;45.412;10.992;2024-03-23T09:20:54;620.10;;;560.83;;
23432;SDS011;41331;45.412;10.992;2024-03-23T09:23:21;232.52;;;209.43;;
23432;SDS011;41331;45.412;10.992;2024-03-23T09:25:48;176.95;;;160.20;;
23432;SDS011;41331;45.412;10.992;2024-03-23T09:28:14;164.20;;;149.38;;
23432;SDS011;41331;45.412;10.992;2024-03-23T09:30:41;221.90;;;200.48;;
23432;SDS011;41331;45.412;10.992;2024-03-23T09:33:12;883.67;;;803.00;;
23432;SDS011;41331;45.412;10.992;2024-03-23T09:35:39;153.80;;;139.97;;
23432;SDS011;41331;45.412;10.992;2024-03-23T09:38:07;231.25;;;208.88;;
23432;SDS011;41331;45.412;10.992;2024-03-23T09:40:40;682.58;;;619.28;;
23432;SDS011;41331;45.412;10.992;2024-03-23T09:43:08;35.08;;;31.63;;
23432;SDS011;41331;45.412;10.992;2024-03-23T09:45:39;28.30;;;23.02;;
23432;SDS011;41331;45.412;10.992;2024-03-23T09:48:09;32.58;;;29.15;;
23432;SDS011;41331;45.412;10.992;2024-03-23T09:50:39;33.05;;;29.73;;
23432;SDS011;41331;45.412;10.992;2024-03-23T09:53:07;37.28;;;30.00;;
23432;SDS011;41331;45.412;10.992;2024-03-23T09:55:35;26.60;;;19.05;;
23432;SDS011;41331;45.412;10.992;2024-03-23T09:58:02;31.20;;;19.90;;
23432;SDS011;41331;45.412;10.992;2024-03-23T10:00:31;27.52;;;21.20;;
23432;SDS011;41331;45.412;10.992;2024-03-23T10:02:58;81.85;;;73.88;;
23432;SDS011;41331;45.412;10.992;2024-03-23T10:05:28;39.53;;;23.75;;
23432;SDS011;41331;45.412;10.992;2024-03-23T10:07:55;28.02;;;23.80;;
23432;SDS011;41331;45.412;10.992;2024-03-23T10:10:22;47.88;;;34.97;;
23432;SDS011;41331;45.412;10.992;2024-03-23T10:12:51;33.13;;;21.23;;
23432;SDS011;41331;45.412;10.992;2024-03-23T10:15:22;36.22;;;29.80;;
23432;SDS011;41331;45.412;10.992;2024-03-23T10:17:51;195.73;;;177.27;;
23432;SDS011;41331;45.412;10.992;2024-03-23T10:20:21;205.30;;;185.60;;
23432;SDS011;41331;45.412;10.992;2024-03-23T10:22:49;494.63;;;445.13;;
23432;SDS011;41331;45.412;10.992;2024-03-23T10:25:18;261.13;;;235.30;;
23432;SDS011;41331;45.412;10.992;2024-03-23T10:30:26;37.47;;;15.43;;
23432;SDS011;41331;45.412;10.992;2024-03-23T10:33:09;27.77;;;17.25;;
23432;SDS011;41331;45.412;10.992;2024-03-23T10:35:37;24.58;;;15.85;;
23432;SDS011;41331;45.412;10.992;2024-03-23T10:38:05;25.23;;;15.68;;
23432;SDS011;41331;45.412;10.992;2024-03-23T10:40:36;23.50;;;15.95;;
23432;SDS011;41331;45.412;10.992;2024-03-23T10:43:04;25.58;;;15.90;;
23432;SDS011;41331;45.412;10.992;2024-03-23T10:45:34;24.73;;;16.48;;
23432;SDS011;41331;45.412;10.992;2024-03-23T10:48:01;26.58;;;18.77;;
23432;SDS011;41331;45.412;10.992;2024-03-23T10:50:28;24.50;;;16.75;;
23432;SDS011;41331;45.412;10.992;2024-03-23T10:52:56;30.80;;;17.73;;
23432;SDS011;41331;45.412;10.992;2024-03-23T10:55:25;23.45;;;16.90;;
23432;SDS011;41331;45.412;10.992;2024-03-23T10:57:54;22.70;;;17.10;;
23432;SDS011;41331;45.412;10.992;2024-03-23T11:00:24;33.47;;;18.38;;
23432;SDS011;41331;45.412;10.992;2024-03-23T11:02:51;30.10;;;19.67;;
23432;SDS011;41331;45.412;10.992;2024-03-23T11:07:52;274.23;;;246.85;;
23432;SDS011;41331;45.412;10.992;2024-03-23T11:10:26;196.18;;;176.90;;
23432;SDS011;41331;45.412;10.992;2024-03-23T11:12:57;175.77;;;159.23;;
23432;SDS011;41331;45.412;10.992;2024-03-23T11:15:24;218.60;;;197.60;;
23432;SDS011;41331;45.412;10.992;2024-03-23T11:18:06;628.33;;;563.83;;
23432;SDS011;41331;45.412;10.992;2024-03-23T11:20:35;347.85;;;312.90;;
23432;SDS011;41331;45.412;10.992;2024-03-23T11:23:02;571.10;;;517.17;;
23432;SDS011;41331;45.412;10.992;2024-03-23T11:25:29;701.20;;;636.50;;
23432;SDS011;41331;45.412;10.992;2024-03-23T11:27:57;153.35;;;139.45;;
23432;SDS011;41331;45.412;10.992;2024-03-23T11:30:44;844.22;;;768.00;;
23432;SDS011;41331;45.412;10.992;2024-03-23T11:33:10;208.88;;;189.15;;
23432;SDS011;41331;45.412;10.992;2024-03-23T11:35:38;162.68;;;148.60;;
23432;SDS011;41331;45.412;10.992;2024-03-23T11:38:13;702.33;;;640.90;;
23432;SDS011;41331;45.412;10.992;2024-03-23T11:40:44;195.57;;;177.68;;
23432;SDS011;41331;45.412;10.992;2024-03-23T11:43:13;970.20;;;885.78;;
23432;SDS011;41331;45.412;10.992;2024-03-23T11:48:13;26.43;;;16.50;;
23432;SDS011;41331;45.412;10.992;2024-03-23T11:50:42;27.83;;;16.10;;
23432;SDS011;41331;45.412;10.992;2024-03-23T11:53:14;25.23;;;15.23;;
23432;SDS011;41331;45.412;10.992;2024-03-23T11:55:51;31.60;;;17.17;;
23432;SDS011;41331;45.412;10.992;2024-03-23T11:58:19;26.48;;;14.57;;
23432;SDS011;41331;45.412;10.992;2024-03-23T12:00:57;27.52;;;14.57;;
23432;SDS011;41331;45.412;10.992;2024-03-23T12:03:25;25.85;;;14.45;;
23432;SDS011;41331;45.412;10.992;2024-03-23T12:05:55;24.23;;;14.50;;
23432;SDS011;41331;45.412;10.992;2024-03-23T12:11:10;26.67;;;15.63;;
23432;SDS011;41331;45.412;10.992;2024-03-23T12:13:39;30.58;;;16.58;;
23432;SDS011;41331;45.412;10.992;2024-03-23T12:16:17;31.83;;;15.35;;
23432;SDS011;41331;45.412;10.992;2024-03-23T12:18:48;26.60;;;16.20;;
23432;SDS011;41331;45.412;10.992;2024-03-23T12:21:15;27.10;;;15.13;;
23432;SDS011;41331;45.412;10.992;2024-03-23T12:23:43;27.30;;;13.82;;
23432;SDS011;41331;45.412;10.992;2024-03-23T12:26:14;27.75;;;15.05;;
23432;SDS011;41331;45.412;10.992;2024-03-23T12:28:42;29.98;;;16.75;;
23432;SDS011;41331;45.412;10.992;2024-03-23T12:31:10;28.42;;;13.32;;
23432;SDS011;41331;45.412;10.992;2024-03-23T12:33:37;25.23;;;13.93;;
23432;SDS011;41331;45.412;10.992;2024-03-23T12:36:03;23.10;;;13.00;;
23432;SDS011;41331;45.412;10.992;2024-03-23T12:38:30;24.30;;;13.95;;
23432;SDS011;41331;45.412;10.992;2024-03-23T12:40:57;21.60;;;12.93;;
23432;SDS011;41331;45.412;10.992;2024-03-23T12:43:24;25.70;;;13.13;;
23432;SDS011;41331;45.412;10.992;2024-03-23T12:45:50;21.08;;;12.80;;
23432;SDS011;41331;45.412;10.992;2024-03-23T12:48:17;21.65;;;13.82;;
23432;SDS011;41331;45.412;10.992;2024-03-23T12:50:44;20.40;;;12.38;;
23432;SDS011;41331;45.412;10.992;2024-03-23T12:53:11;20.58;;;12.30;;
23432;SDS011;41331;45.412;10.992;2024-03-23T12:55:37;20.35;;;12.70;;
23432;SDS011;41331;45.412;10.992;2024-03-23T12:58:04;16.85;;;10.93;;
23432;SDS011;41331;45.412;10.992;2024-03-23T13:00:31;22.95;;;11.07;;
23432;SDS011;41331;45.412;10.992;2024-03-23T13:02:57;20.33;;;12.05;;
23432;SDS011;41331;45.412;10.992;2024-03-23T13:05:24;21.38;;;11.55;;
23432;SDS011;41331;45.412;10.992;2024-03-23T13:07:50;23.15;;;13.90;;
23432;SDS011;41331;45.412;10.992;2024-03-23T13:10:17;24.75;;;13.50;;
23432;SDS011;41331;45.412;10.992;2024-03-23T13:12:44;24.77;;;14.55;;
23432;SDS011;41331;45.412;10.992;2024-03-23T13:15:10;23.40;;;13.43;;
23432;SDS011;41331;45.412;10.992;2024-03-23T13:17:37;23.42;;;13.63;;
23432;SDS011;41331;45.412;10.992;2024-03-23T13:20:04;24.90;;;13.30;;
23432;SDS011;41331;45.412;10.992;2024-03-23T13:22:31;22.55;;;13.40;;
23432;SDS011;41331;45.412;10.992;2024-03-23T13:24:58;23.75;;;13.35;;
23432;SDS011;41331;45.412;10.992;2024-03-23T13:27:26;20.52;;;11.88;;
23432;SDS011;41331;45.412;10.992;2024-03-23T13:29:52;23.98;;;11.98;;
23432;SDS011;41331;45.412;10.992;2024-03-23T13:32:19;23.20;;;12.65;;
23432;SDS011;41331;45.412;10.992;2024-03-23T13:34:46;22.95;;;13.00;;
23432;SDS011;41331;45.412;10.992;2024-03-23T13:37:16;24.10;;;13.02;;
23432;SDS011;41331;45.412;10.992;2024-03-23T13:39:43;24.63;;;13.88;;
23432;SDS011;41331;45.412;10.992;2024-03-23T13:42:09;22.92;;;13.30;;
23432;SDS011;41331;45.412;10.992;2024-03-23T13:44:38;20.60;;;11.38;;
23432;SDS011;41331;45.412;10.992;2024-03-23T13:47:05;19.95;;;11.07;;
23432;SDS011;41331;45.412;10.992;2024-03-23T13:49:31;21.45;;;11.25;;
23432;SDS011;41331;45.412;10.992;2024-03-23T13:51:58;18.65;;;11.55;;
23432;SDS011;41331;45.412;10.992;2024-03-23T13:54:26;26.48;;;12.25;;
23432;SDS011;41331;45.412;10.992;2024-03-23T13:56:54;22.08;;;12.32;;
23432;SDS011;41331;45.412;10.992;2024-03-23T13:59:22;24.73;;;12.38;;
23432;SDS011;41331;45.412;10.992;2024-03-23T14:01:50;23.42;;;12.45;;
23432;SDS011;41331;45.412;10.992;2024-03-23T14:04:17;22.23;;;12.77;;
23432;SDS011;41331;45.412;10.992;2024-03-23T14:06:46;28.77;;;13.10;;
23432;SDS011;41331;45.412;10.992;2024-03-23T14:09:13;25.17;;;12.30;;
23432;SDS011;41331;45.412;10.992;2024-03-23T14:11:41;24.10;;;12.23;;
23432;SDS011;41331;45.412;10.992;2024-03-23T14:14:09;24.48;;;13.35;;
23432;SDS011;41331;45.412;10.992;2024-03-23T14:16:36;22.50;;;13.27;;
23432;SDS011;41331;45.412;10.992;2024-03-23T14:19:03;22.02;;;12.40;;
23432;SDS011;41331;45.412;10.992;2024-03-23T14:21:32;24.60;;;13.27;;
23432;SDS011;41331;45.412;10.992;2024-03-23T14:23:58;24.77;;;12.85;;
23432;SDS011;41331;45.412;10.992;2024-03-23T14:26:27;24.25;;;13.00;;
23432;SDS011;41331;45.412;10.992;2024-03-23T14:28:54;25.38;;;12.35;;
23432;SDS011;41331;45.412;10.992;2024-03-23T14:31:21;25.60;;;13.93;;
23432;SDS011;41331;45.412;10.992;2024-03-23T14:33:48;24.25;;;13.38;;
23432;SDS011;41331;45.412;10.992;2024-03-23T14:36:16;24.15;;;13.60;;
23432;SDS011;41331;45.412;10.992;2024-03-23T14:38:49;23.80;;;13.00;;
23432;SDS011;41331;45.412;10.992;2024-03-23T14:41:16;26.33;;;13.50;;
23432;SDS011;41331;45.412;10.992;2024-03-23T14:43:43;26.38;;;13.43;;
23432;SDS011;41331;45.412;10.992;2024-03-23T14:46:15;25.15;;;13.30;;
23432;SDS011;41331;45.412;10.992;2024-03-23T14:48:43;25.50;;;13.68;;
23432;SDS011;41331;45.412;10.992;2024-03-23T14:51:11;23.90;;;13.60;;
23432;SDS011;41331;45.412;10.992;2024-03-23T14:53:39;31.80;;;13.45;;
23432;SDS011;41331;45.412;10.992;2024-03-23T14:56:07;24.55;;;14.82;;
23432;SDS011;41331;45.412;10.992;2024-03-23T14:58:35;23.38;;;13.98;;
23432;SDS011;41331;45.412;10.992;2024-03-23T15:01:02;22.45;;;13.13;;
23432;SDS011;41331;45.412;10.992;2024-03-23T15:03:36;20.88;;;13.23;;